sensor_id;sensor_type;location;lat;lon;timestamp;pressure;altitude;pressure_sealevel;temperature;humidity
54503;BME280;40411;50.090;21.954;2024-01-27T00:01:38;65230.53;;;5.21;100.00
54503;BME280;40411;50.090;21.954;2024-01-27T00:04:04;65279.63;;;5.25;100.00
54503;BME280;40411;50.090;21.954;2024-01-27T00:06:30;65193.84;;;5.39;100.00
54503;BME280;40411;50.090;21.954;2024-01-27T00:08:55;65222.88;;;5.51;100.00
54503;BME280;40411;50.090;21.954;2024-01-27T00:11:21;65179.41;;;5.64;100.00
54503;BME280;40411;50.090;21.954;2024-01-27T00:13:50;65132.22;;;5.63;100.00
54503;BME280;40411;50.090;21.954;2024-01-27T00:16:16;65190.44;;;5.59;100.00
54503;BME280;40411;50.090;21.954;2024-01-27T00:18:41;65147.69;;;5.87;100.00
54503;BME280;40411;50.090;21.954;2024-01-27T00:21:07;65118.47;;;6.14;100.00
54503;BME280;40411;50.090;21.954;2024-01-27T00:23:33;65136.88;;;6.05;100.00
54503;BME280;40411;50.090;21.954;2024-01-27T00:26:01;65103.00;;;6.21;100.00
54503;BME280;40411;50.090;21.954;2024-01-27T00:28:26;65089.16;;;6.61;100.00
54503;BME280;40411;50.090;21.954;2024-01-27T00:30:53;65098.28;;;6.64;100.00
54503;BME280;40411;50.090;21.954;2024-01-27T00:33:18;65075.34;;;6.69;100.00
54503;BME280;40411;50.090;21.954;2024-01-27T00:35:44;65060.41;;;6.58;100.00
54503;BME280;40411;50.090;21.954;2024-01-27T00:38:10;65085.63;;;6.24;100.00
54503;BME280;40411;50.090;21.954;2024-01-27T00:40:36;65090.34;;;6.50;100.00
54503;BME280;40411;50.090;21.954;2024-01-27T00:43:02;65079.19;;;6.47;100.00
54503;BME280;40411;50.090;21.954;2024-01-27T00:45:29;65077.38;;;6.50;100.00
54503;BME280;40411;50.090;21.954;2024-01-27T00:47:56;65065.66;;;6.65;100.00
54503;BME280;40411;50.090;21.954;2024-01-27T00:50:22;65059.44;;;6.71;100.00
54503;BME280;40411;50.090;21.954;2024-01-27T00:52:48;65004.44;;;6.78;100.00
54503;BME280;40411;50.090;21.954;2024-01-27T00:55:14;65060.94;;;6.40;100.00
54503;BME280;40411;50.090;21.954;2024-01-27T00:57:40;65083.25;;;6.46;100.00
54503;BME280;40411;50.090;21.954;2024-01-27T01:00:07;65065.31;;;6.67;100.00
54503;BME280;40411;50.090;21.954;2024-01-27T01:02:34;65052.06;;;6.58;100.00
54503;BME280;40411;50.090;21.954;2024-01-27T01:05:01;65032.78;;;6.57;100.00
54503;BME280;40411;50.090;21.954;2024-01-27T01:07:32;65012.72;;;6.71;100.00
54503;BME280;40411;50.090;21.954;2024-01-27T01:09:58;65032.00;;;6.72;100.00
54503;BME280;40411;50.090;21.954;2024-01-27T01:12:24;65010.31;;;6.93;100.00
54503;BME280;40411;50.090;21.954;2024-01-27T01:14:53;65048.78;;;6.81;100.00
54503;BME280;40411;50.090;21.954;2024-01-27T01:17:19;65046.59;;;6.67;100.00
54503;BME280;40411;50.090;21.954;2024-01-27T01:19:45;64995.16;;;6.98;100.00
54503;BME280;40411;50.090;21.954;2024-01-27T01:22:11;65044.69;;;6.63;100.00
54503;BME280;40411;50.090;21.954;2024-01-27T01:24:37;65000.91;;;6.80;100.00
54503;BME280;40411;50.090;21.954;2024-01-27T01:27:03;65026.09;;;6.77;100.00
54503;BME280;40411;50.090;21.954;2024-01-27T01:29:29;64999.06;;;7.02;100.00
54503;BME280;40411;50.090;21.954;2024-01-27T01:31:55;65021.53;;;7.03;100.00
54503;BME280;40411;50.090;21.954;2024-01-27T01:34:21;64978.81;;;7.21;100.00
54503;BME280;40411;50.090;21.954;2024-01-27T01:36:46;64971.78;;;7.24;100.00
54503;BME280;40411;50.090;21.954;2024-01-27T01:39:13;65030.09;;;6.68;100.00
54503;BME280;40411;50.090;21.954;2024-01-27T01:41:40;65007.00;;;6.97;100.00
54503;BME280;40411;50.090;21.954;2024-01-27T01:44:06;65018.22;;;7.07;100.00
54503;BME280;40411;50.090;21.954;2024-01-27T01:46:33;64951.00;;;7.24;100.00
54503;BME280;40411;50.090;21.954;2024-01-27T01:49:00;64957.75;;;7.30;100.00
54503;BME280;40411;50.090;21.954;2024-01-27T01:51:26;65015.34;;;6.98;100.00
54503;BME280;40411;50.090;21.954;2024-01-27T01:53:57;64984.94;;;7.20;100.00
54503;BME280;40411;50.090;21.954;2024-01-27T01:56:24;64983.88;;;7.26;100.00
54503;BME280;40411;50.090;21.954;2024-01-27T01:58:51;65006.72;;;7.06;100.00
54503;BME280;40411;50.090;21.954;2024-01-27T02:01:19;64978.81;;;7.21;100.00
54503;BME280;40411;50.090;21.954;2024-01-27T02:03:54;65025.75;;;6.98;100.00
54503;BME280;40411;50.090;21.954;2024-01-27T02:06:20;65015.63;;;7.07;100.00
54503;BME280;40411;50.090;21.954;2024-01-27T02:08:47;64991.69;;;7.07;100.00
54503;BME280;40411;50.090;21.954;2024-01-27T02:11:12;65043.28;;;6.90;100.00
54503;BME280;40411;50.090;21.954;2024-01-27T02:13:39;65069.31;;;6.97;100.00
54503;BME280;40411;50.090;21.954;2024-01-27T02:16:05;65087.06;;;6.92;100.00
54503;BME280;40411;50.090;21.954;2024-01-27T02:18:31;65105.38;;;6.68;100.00
54503;BME280;40411;50.090;21.954;2024-01-27T02:20:56;65086.78;;;7.01;100.00
54503;BME280;40411;50.090;21.954;2024-01-27T02:23:22;65066.22;;;6.85;100.00
54503;BME280;40411;50.090;21.954;2024-01-27T02:25:48;65062.16;;;6.86;100.00
54503;BME280;40411;50.090;21.954;2024-01-27T02:28:16;65123.13;;;6.63;100.00
54503;BME280;40411;50.090;21.954;2024-01-27T02:30:42;65101.38;;;6.77;100.00
54503;BME280;40411;50.090;21.954;2024-01-27T02:33:08;65127.00;;;6.48;100.00
54503;BME280;40411;50.090;21.954;2024-01-27T02:35:34;65129.63;;;6.67;100.00
54503;BME280;40411;50.090;21.954;2024-01-27T02:38:00;65157.16;;;6.42;100.00
54503;BME280;40411;50.090;21.954;2024-01-27T02:40:26;65146.78;;;6.42;100.00
54503;BME280;40411;50.090;21.954;2024-01-27T02:42:52;65199.28;;;6.19;100.00
54503;BME280;40411;50.090;21.954;2024-01-27T02:45:18;65126.91;;;6.71;99.87
54503;BME280;40411;50.090;21.954;2024-01-27T02:47:44;65139.09;;;6.49;99.98
54503;BME280;40411;50.090;21.954;2024-01-27T02:50:10;65184.34;;;6.39;99.07
54503;BME280;40411;50.090;21.954;2024-01-27T02:52:36;65125.03;;;6.37;99.27
54503;BME280;40411;50.090;21.954;2024-01-27T02:55:02;65156.97;;;6.59;98.52
54503;BME280;40411;50.090;21.954;2024-01-27T02:57:28;65163.16;;;6.34;100.00
54503;BME280;40411;50.090;21.954;2024-01-27T02:59:53;65169.72;;;6.25;99.58
54503;BME280;40411;50.090;21.954;2024-01-27T03:02:19;65169.16;;;6.25;99.11
54503;BME280;40411;50.090;21.954;2024-01-27T03:04:45;65218.69;;;6.04;100.00
54503;BME280;40411;50.090;21.954;2024-01-27T03:07:11;65184.00;;;5.87;100.00
54503;BME280;40411;50.090;21.954;2024-01-27T03:09:37;65198.16;;;6.18;100.00
54503;BME280;40411;50.090;21.954;2024-01-27T03:12:03;65247.56;;;6.02;99.75
54503;BME280;40411;50.090;21.954;2024-01-27T03:14:29;65204.84;;;5.94;98.60
54503;BME280;40411;50.090;21.954;2024-01-27T03:16:55;65234.03;;;6.13;97.85
54503;BME280;40411;50.090;21.954;2024-01-27T03:19:20;65220.06;;;5.96;98.29
54503;BME280;40411;50.090;21.954;2024-01-27T03:21:46;65227.59;;;5.93;98.22
54503;BME280;40411;50.090;21.954;2024-01-27T03:24:12;65245.28;;;5.76;99.53
54503;BME280;40411;50.090;21.954;2024-01-27T03:26:38;65226.34;;;6.20;97.33
54503;BME280;40411;50.090;21.954;2024-01-27T03:29:04;65244.41;;;6.13;95.03
54503;BME280;40411;50.090;21.954;2024-01-27T03:31:33;65253.31;;;6.02;95.19
54503;BME280;40411;50.090;21.954;2024-01-27T03:34:00;65263.09;;;5.78;94.43
54503;BME280;40411;50.090;21.954;2024-01-27T03:36:26;65249.22;;;6.27;92.20
54503;BME280;40411;50.090;21.954;2024-01-27T03:38:53;65268.72;;;6.31;91.71
54503;BME280;40411;50.090;21.954;2024-01-27T03:41:19;65227.84;;;6.08;91.29
54503;BME280;40411;50.090;21.954;2024-01-27T03:43:45;65238.75;;;6.20;90.99
54503;BME280;40411;50.090;21.954;2024-01-27T03:46:11;65248.94;;;5.94;92.34
54503;BME280;40411;50.090;21.954;2024-01-27T03:48:36;65319.78;;;5.69;91.67
54503;BME280;40411;50.090;21.954;2024-01-27T03:51:02;65314.38;;;5.90;89.67
54503;BME280;40411;50.090;21.954;2024-01-27T03:53:28;65281.47;;;5.93;88.82
54503;BME280;40411;50.090;21.954;2024-01-27T03:55:55;65276.75;;;6.10;87.01
54503;BME280;40411;50.090;21.954;2024-01-27T03:58:24;65322.41;;;6.04;86.37
54503;BME280;40411;50.090;21.954;2024-01-27T04:00:51;65251.78;;;6.39;84.94
54503;BME280;40411;50.090;21.954;2024-01-27T04:03:17;65312.78;;;5.72;86.55
54503;BME280;40411;50.090;21.954;2024-01-27T04:05:43;65325.97;;;5.86;85.72
54503;BME280;40411;50.090;21.954;2024-01-27T04:08:09;65328.94;;;5.96;84.91
54503;BME280;40411;50.090;21.954;2024-01-27T04:10:36;65319.00;;;6.01;84.82
54503;BME280;40411;50.090;21.954;2024-01-27T04:13:02;65323.53;;;5.93;84.68
54503;BME280;40411;50.090;21.954;2024-01-27T04:15:28;65325.84;;;5.79;85.12
54503;BME280;40411;50.090;21.954;2024-01-27T04:17:54;65288.91;;;5.83;85.58
54503;BME280;40411;50.090;21.954;2024-01-27T04:20:20;65335.25;;;5.97;84.69
54503;BME280;40411;50.090;21.954;2024-01-27T04:22:46;65312.91;;;5.91;85.56
54503;BME280;40411;50.090;21.954;2024-01-27T04:25:12;65356.63;;;5.69;86.37
54503;BME280;40411;50.090;21.954;2024-01-27T04:27:38;65339.66;;;6.06;85.51
54503;BME280;40411;50.090;21.954;2024-01-27T04:30:08;65295.00;;;5.93;86.42
54503;BME280;40411;50.090;21.954;2024-01-27T04:32:35;65278.44;;;6.11;86.38
54503;BME280;40411;50.090;21.954;2024-01-27T04:35:01;65331.88;;;5.94;86.98
54503;BME280;40411;50.090;21.954;2024-01-27T04:37:28;65266.94;;;5.75;88.06
54503;BME280;40411;50.090;21.954;2024-01-27T04:39:54;65321.72;;;5.96;87.46
54503;BME280;40411;50.090;21.954;2024-01-27T04:42:20;65319.31;;;5.75;88.54
54503;BME280;40411;50.090;21.954;2024-01-27T04:44:46;65329.91;;;5.78;88.40
54503;BME280;40411;50.090;21.954;2024-01-27T04:47:12;65294.88;;;5.74;89.23
54503;BME280;40411;50.090;21.954;2024-01-27T04:49:38;65335.66;;;5.90;87.62
54503;BME280;40411;50.090;21.954;2024-01-27T04:52:03;65318.78;;;5.87;87.34
54503;BME280;40411;50.090;21.954;2024-01-27T04:54:29;65318.63;;;5.68;88.24
54503;BME280;40411;50.090;21.954;2024-01-27T04:56:55;65316.88;;;5.82;88.02
54503;BME280;40411;50.090;21.954;2024-01-27T04:59:21;65313.50;;;6.03;86.77
54503;BME280;40411;50.090;21.954;2024-01-27T05:01:47;65325.34;;;6.14;86.59
54503;BME280;40411;50.090;21.954;2024-01-27T05:04:13;65327.78;;;5.71;87.66
54503;BME280;40411;50.090;21.954;2024-01-27T05:06:43;65307.06;;;5.95;86.23
54503;BME280;40411;50.090;21.954;2024-01-27T05:09:10;65256.78;;;6.01;86.18
54503;BME280;40411;50.090;21.954;2024-01-27T05:11:36;65327.56;;;5.80;86.27
54503;BME280;40411;50.090;21.954;2024-01-27T05:14:02;65333.31;;;5.81;85.86
54503;BME280;40411;50.090;21.954;2024-01-27T05:16:28;65328.59;;;5.98;84.28
54503;BME280;40411;50.090;21.954;2024-01-27T05:18:54;65322.28;;;6.09;83.68
54503;BME280;40411;50.090;21.954;2024-01-27T05:21:20;65349.31;;;5.86;84.28
54503;BME280;40411;50.090;21.954;2024-01-27T05:23:46;65283.72;;;6.07;84.00
54503;BME280;40411;50.090;21.954;2024-01-27T05:26:12;65346.03;;;5.90;82.69
54503;BME280;40411;50.090;21.954;2024-01-27T05:28:39;65368.97;;;6.09;82.66
54503;BME280;40411;50.090;21.954;2024-01-27T05:31:08;65326.13;;;6.05;83.04
54503;BME280;40411;50.090;21.954;2024-01-27T05:33:37;65332.66;;;6.32;81.43
54503;BME280;40411;50.090;21.954;2024-01-27T05:36:04;65295.31;;;6.50;80.27
54503;BME280;40411;50.090;21.954;2024-01-27T05:38:30;65329.28;;;6.17;81.86
54503;BME280;40411;50.090;21.954;2024-01-27T05:41:00;65341.00;;;6.21;81.54
54503;BME280;40411;50.090;21.954;2024-01-27T05:43:27;65352.94;;;6.03;81.85
54503;BME280;40411;50.090;21.954;2024-01-27T05:45:53;65317.09;;;6.32;80.14
54503;BME280;40411;50.090;21.954;2024-01-27T05:48:19;65306.59;;;6.48;80.43
54503;BME280;40411;50.090;21.954;2024-01-27T05:50:55;65327.81;;;6.18;81.19
54503;BME280;40411;50.090;21.954;2024-01-27T05:53:22;65341.59;;;6.21;82.06
54503;BME280;40411;50.090;21.954;2024-01-27T05:55:47;65308.09;;;6.00;82.42
54503;BME280;40411;50.090;21.954;2024-01-27T05:58:14;65311.22;;;5.89;82.93
54503;BME280;40411;50.090;21.954;2024-01-27T06:00:39;65326.66;;;5.70;83.97
54503;BME280;40411;50.090;21.954;2024-01-27T06:03:05;65353.56;;;5.76;84.08
54503;BME280;40411;50.090;21.954;2024-01-27T06:05:34;65313.84;;;6.24;83.02
54503;BME280;40411;50.090;21.954;2024-01-27T06:08:00;65337.38;;;5.80;84.36
54503;BME280;40411;50.090;21.954;2024-01-27T06:10:26;65310.88;;;6.26;83.86
54503;BME280;40411;50.090;21.954;2024-01-27T06:12:52;65370.13;;;5.58;84.92
54503;BME280;40411;50.090;21.954;2024-01-27T06:15:17;65287.09;;;5.86;85.49
54503;BME280;40411;50.090;21.954;2024-01-27T06:17:47;65265.34;;;6.04;85.43
54503;BME280;40411;50.090;21.954;2024-01-27T06:20:13;65308.50;;;5.82;85.89
54503;BME280;40411;50.090;21.954;2024-01-27T06:22:39;65333.06;;;5.90;85.91
54503;BME280;40411;50.090;21.954;2024-01-27T06:25:05;65303.22;;;5.98;86.07
54503;BME280;40411;50.090;21.954;2024-01-27T06:27:31;65324.94;;;5.57;87.28
54503;BME280;40411;50.090;21.954;2024-01-27T06:29:56;65323.47;;;5.58;87.01
54503;BME280;40411;50.090;21.954;2024-01-27T06:32:22;65350.75;;;5.73;86.39
54503;BME280;40411;50.090;21.954;2024-01-27T06:34:48;65305.59;;;5.84;87.35
54503;BME280;40411;50.090;21.954;2024-01-27T06:37:14;65306.81;;;5.80;87.42
54503;BME280;40411;50.090;21.954;2024-01-27T06:39:40;65280.03;;;5.94;86.04
54503;BME280;40411;50.090;21.954;2024-01-27T06:42:07;65295.09;;;5.89;87.20
54503;BME280;40411;50.090;21.954;2024-01-27T06:44:33;65317.75;;;5.57;89.21
54503;BME280;40411;50.090;21.954;2024-01-27T06:46:59;65292.41;;;5.93;87.11
54503;BME280;40411;50.090;21.954;2024-01-27T06:49:24;65312.78;;;5.83;87.75
54503;BME280;40411;50.090;21.954;2024-01-27T06:51:50;65306.25;;;5.68;89.55
54503;BME280;40411;50.090;21.954;2024-01-27T06:54:16;65276.75;;;5.86;88.50
54503;BME280;40411;50.090;21.954;2024-01-27T06:56:42;65257.00;;;5.92;88.15
54503;BME280;40411;50.090;21.954;2024-01-27T06:59:08;65268.50;;;6.16;86.86
54503;BME280;40411;50.090;21.954;2024-01-27T07:01:34;65298.63;;;6.11;87.08
54503;BME280;40411;50.090;21.954;2024-01-27T07:03:59;65308.28;;;5.79;87.21
54503;BME280;40411;50.090;21.954;2024-01-27T07:06:26;65331.63;;;5.79;86.50
54503;BME280;40411;50.090;21.954;2024-01-27T07:08:51;65281.25;;;6.14;85.02
54503;BME280;40411;50.090;21.954;2024-01-27T07:11:17;65294.00;;;6.11;84.43
54503;BME280;40411;50.090;21.954;2024-01-27T07:13:43;65301.31;;;6.06;84.47
54503;BME280;40411;50.090;21.954;2024-01-27T07:16:09;65319.69;;;6.20;83.00
54503;BME280;40411;50.090;21.954;2024-01-27T07:18:35;65302.88;;;6.47;82.54
54503;BME280;40411;50.090;21.954;2024-01-27T07:21:01;65314.06;;;6.15;82.29
54503;BME280;40411;50.090;21.954;2024-01-27T07:23:28;65353.19;;;5.94;83.35
54503;BME280;40411;50.090;21.954;2024-01-27T07:25:54;65331.19;;;5.98;83.56
54503;BME280;40411;50.090;21.954;2024-01-27T07:28:20;65317.00;;;6.25;81.88
54503;BME280;40411;50.090;21.954;2024-01-27T07:30:46;65272.47;;;6.08;82.42
54503;BME280;40411;50.090;21.954;2024-01-27T07:33:12;65354.97;;;6.03;82.14
54503;BME280;40411;50.090;21.954;2024-01-27T07:35:38;65307.06;;;6.18;82.13
54503;BME280;40411;50.090;21.954;2024-01-27T07:38:03;65327.94;;;6.14;81.79
54503;BME280;40411;50.090;21.954;2024-01-27T07:40:29;65349.00;;;6.12;80.80
54503;BME280;40411;50.090;21.954;2024-01-27T07:42:55;65313.16;;;6.29;80.06
54503;BME280;40411;50.090;21.954;2024-01-27T07:45:21;65327.47;;;6.44;78.73
54503;BME280;40411;50.090;21.954;2024-01-27T07:47:47;65271.25;;;6.66;77.86
54503;BME280;40411;50.090;21.954;2024-01-27T07:50:13;65327.34;;;6.37;78.85
54503;BME280;40411;50.090;21.954;2024-01-27T07:52:39;65282.19;;;6.66;78.60
54503;BME280;40411;50.090;21.954;2024-01-27T07:55:05;65308.47;;;6.76;76.83
54503;BME280;40411;50.090;21.954;2024-01-27T07:57:31;65283.56;;;6.58;77.67
54503;BME280;40411;50.090;21.954;2024-01-27T07:59:58;65285.88;;;6.79;77.75
54503;BME280;40411;50.090;21.954;2024-01-27T08:02:23;65306.34;;;6.69;77.38
54503;BME280;40411;50.090;21.954;2024-01-27T08:04:52;65297.00;;;6.63;76.79
54503;BME280;40411;50.090;21.954;2024-01-27T08:07:17;65276.38;;;6.89;76.77
54503;BME280;40411;50.090;21.954;2024-01-27T08:09:43;65315.97;;;6.55;77.90
54503;BME280;40411;50.090;21.954;2024-01-27T08:12:10;65290.47;;;6.48;78.70
54503;BME280;40411;50.090;21.954;2024-01-27T08:14:36;65290.84;;;6.77;77.40
54503;BME280;40411;50.090;21.954;2024-01-27T08:17:02;65236.56;;;7.10;76.56
54503;BME280;40411;50.090;21.954;2024-01-27T08:19:31;65273.56;;;6.87;76.63
54503;BME280;40411;50.090;21.954;2024-01-27T08:21:57;65260.91;;;6.85;76.46
54503;BME280;40411;50.090;21.954;2024-01-27T08:24:23;65254.72;;;7.22;75.91
54503;BME280;40411;50.090;21.954;2024-01-27T08:26:50;65279.34;;;6.76;77.61
54503;BME280;40411;50.090;21.954;2024-01-27T08:29:16;65322.81;;;6.56;78.94
54503;BME280;40411;50.090;21.954;2024-01-27T08:31:42;65307.72;;;6.38;79.11
54503;BME280;40411;50.090;21.954;2024-01-27T08:34:08;65291.56;;;6.49;79.70
54503;BME280;40411;50.090;21.954;2024-01-27T08:36:34;65317.09;;;6.32;79.82
54503;BME280;40411;50.090;21.954;2024-01-27T08:39:00;65301.31;;;6.30;79.76
54503;BME280;40411;50.090;21.954;2024-01-27T08:41:26;65296.56;;;6.46;79.72
54503;BME280;40411;50.090;21.954;2024-01-27T08:43:53;65283.78;;;6.49;79.53
54503;BME280;40411;50.090;21.954;2024-01-27T08:46:18;65320.84;;;6.21;79.40
54503;BME280;40411;50.090;21.954;2024-01-27T08:48:47;65277.38;;;6.53;79.62
54503;BME280;40411;50.090;21.954;2024-01-27T08:51:13;65238.16;;;6.74;80.76
54503;BME280;40411;50.090;21.954;2024-01-27T08:53:42;65250.06;;;6.61;81.73
54503;BME280;40411;50.090;21.954;2024-01-27T08:56:07;65277.78;;;6.69;81.69
54503;BME280;40411;50.090;21.954;2024-01-27T08:58:33;65279.06;;;6.54;83.61
54503;BME280;40411;50.090;21.954;2024-01-27T09:00:59;65253.94;;;6.76;82.20
54503;BME280;40411;50.090;21.954;2024-01-27T09:03:31;65239.56;;;6.54;83.25
54503;BME280;40411;50.090;21.954;2024-01-27T09:05:57;65305.84;;;6.22;84.29
54503;BME280;40411;50.090;21.954;2024-01-27T09:08:23;65285.09;;;6.22;86.72
54503;BME280;40411;50.090;21.954;2024-01-27T09:10:49;65269.75;;;6.13;86.47
54503;BME280;40411;50.090;21.954;2024-01-27T09:13:15;65319.81;;;6.16;86.85
54503;BME280;40411;50.090;21.954;2024-01-27T09:15:41;65276.97;;;6.00;87.15
54503;BME280;40411;50.090;21.954;2024-01-27T09:18:07;65319.22;;;5.92;88.16
54503;BME280;40411;50.090;21.954;2024-01-27T09:20:33;65279.22;;;5.79;88.70
54503;BME280;40411;50.090;21.954;2024-01-27T09:23:00;65293.97;;;5.76;88.86
54503;BME280;40411;50.090;21.954;2024-01-27T09:25:25;65322.69;;;5.67;88.15
54503;BME280;40411;50.090;21.954;2024-01-27T09:27:53;65278.09;;;6.01;89.05
54503;BME280;40411;50.090;21.954;2024-01-27T09:30:19;65236.06;;;6.01;87.18
54503;BME280;40411;50.090;21.954;2024-01-27T09:32:45;65202.69;;;6.11;86.46
54503;BME280;40411;50.090;21.954;2024-01-27T09:35:11;65320.81;;;5.98;84.95
54503;BME280;40411;50.090;21.954;2024-01-27T09:37:39;65260.50;;;6.25;84.93
54503;BME280;40411;50.090;21.954;2024-01-27T09:40:06;65251.66;;;6.55;83.54
54503;BME280;40411;50.090;21.954;2024-01-27T09:42:33;65244.50;;;6.75;82.36
54503;BME280;40411;50.090;21.954;2024-01-27T09:45:01;65258.00;;;6.21;84.25
54503;BME280;40411;50.090;21.954;2024-01-27T09:47:29;65313.47;;;6.26;83.85
54503;BME280;40411;50.090;21.954;2024-01-27T09:49:55;65339.75;;;6.01;84.31
54503;BME280;40411;50.090;21.954;2024-01-27T09:52:21;65298.97;;;5.97;84.94
54503;BME280;40411;50.090;21.954;2024-01-27T09:54:47;65303.00;;;6.19;84.00
54503;BME280;40411;50.090;21.954;2024-01-27T09:57:15;65248.06;;;6.38;83.94
54503;BME280;40411;50.090;21.954;2024-01-27T09:59:41;65227.41;;;6.45;84.04
54503;BME280;40411;50.090;21.954;2024-01-27T10:02:11;65256.06;;;6.52;83.52
54503;BME280;40411;50.090;21.954;2024-01-27T10:04:41;65278.19;;;6.20;83.40
54503;BME280;40411;50.090;21.954;2024-01-27T10:07:10;65266.13;;;6.31;84.47
54503;BME280;40411;50.090;21.954;2024-01-27T10:09:37;65273.41;;;6.49;85.10
54503;BME280;40411;50.090;21.954;2024-01-27T10:12:05;65262.53;;;6.13;86.18
54503;BME280;40411;50.090;21.954;2024-01-27T10:14:40;65304.34;;;5.88;87.25
54503;BME280;40411;50.090;21.954;2024-01-27T10:17:32;65282.72;;;5.77;88.58
54503;BME280;40411;50.090;21.954;2024-01-27T10:20:28;65321.78;;;5.68;89.13
54503;BME280;40411;50.090;21.954;2024-01-27T10:22:55;65272.56;;;5.68;89.48
54503;BME280;40411;50.090;21.954;2024-01-27T10:25:27;65253.75;;;6.19;89.09
54503;BME280;40411;50.090;21.954;2024-01-27T10:27:56;65299.59;;;5.69;91.35
54503;BME280;40411;50.090;21.954;2024-01-27T10:30:25;65299.16;;;5.64;92.42
54503;BME280;40411;50.090;21.954;2024-01-27T10:32:55;65281.56;;;5.53;93.17
54503;BME280;40411;50.090;21.954;2024-01-27T10:35:24;65268.94;;;5.51;94.22
54503;BME280;40411;50.090;21.954;2024-01-27T10:37:54;65291.38;;;5.52;93.48
54503;BME280;40411;50.090;21.954;2024-01-27T10:40:20;65284.47;;;5.39;95.24
54503;BME280;40411;50.090;21.954;2024-01-27T10:43:10;65313.44;;;5.32;96.84
54503;BME280;40411;50.090;21.954;2024-01-27T10:45:40;65309.31;;;5.10;98.42
54503;BME280;40411;50.090;21.954;2024-01-27T10:48:13;65295.97;;;4.77;98.67
54503;BME280;40411;50.090;21.954;2024-01-27T10:50:41;65263.44;;;5.29;98.09
54503;BME280;40411;50.090;21.954;2024-01-27T10:53:19;65245.88;;;5.30;97.62
54503;BME280;40411;50.090;21.954;2024-01-27T10:55:48;65266.69;;;5.49;97.18
54503;BME280;40411;50.090;21.954;2024-01-27T10:58:14;65286.06;;;5.57;96.73
54503;BME280;40411;50.090;21.954;2024-01-27T11:00:41;65287.63;;;5.40;97.53
54503;BME280;40411;50.090;21.954;2024-01-27T11:03:10;65213.84;;;6.14;95.96
54503;BME280;40411;50.090;21.954;2024-01-27T11:05:37;65271.56;;;5.86;95.26
54503;BME280;40411;50.090;21.954;2024-01-27T11:08:08;65250.81;;;5.39;98.06
54503;BME280;40411;50.090;21.954;2024-01-27T11:10:34;65318.22;;;5.11;98.96
54503;BME280;40411;50.090;21.954;2024-01-27T11:13:04;65284.16;;;5.41;98.44
54503;BME280;40411;50.090;21.954;2024-01-27T11:15:30;65265.47;;;5.41;98.22
54503;BME280;40411;50.090;21.954;2024-01-27T11:17:57;65250.47;;;5.53;98.89
54503;BME280;40411;50.090;21.954;2024-01-27T11:20:26;65318.13;;;5.15;100.00
54503;BME280;40411;50.090;21.954;2024-01-27T11:22:52;65296.66;;;5.48;99.19
54503;BME280;40411;50.090;21.954;2024-01-27T11:25:20;65310.84;;;5.32;99.52
54503;BME280;40411;50.090;21.954;2024-01-27T11:27:46;65291.91;;;5.29;98.76
54503;BME280;40411;50.090;21.954;2024-01-27T11:30:31;65287.41;;;5.25;99.76
54503;BME280;40411;50.090;21.954;2024-01-27T11:33:03;65326.03;;;5.34;99.50
54503;BME280;40411;50.090;21.954;2024-01-27T11:35:30;65264.69;;;5.61;99.05
54503;BME280;40411;50.090;21.954;2024-01-27T11:37:56;65214.09;;;5.46;100.00
54503;BME280;40411;50.090;21.954;2024-01-27T11:40:22;65214.66;;;5.58;99.19
54503;BME280;40411;50.090;21.954;2024-01-27T11:43:01;65248.44;;;5.42;99.18
54503;BME280;40411;50.090;21.954;2024-01-27T11:45:28;65263.31;;;5.22;99.77
54503;BME280;40411;50.090;21.954;2024-01-27T11:48:00;65272.22;;;5.47;98.54
54503;BME280;40411;50.090;21.954;2024-01-27T11:50:26;65244.84;;;5.36;99.64
54503;BME280;40411;50.090;21.954;2024-01-27T11:52:52;65266.59;;;5.53;98.19
54503;BME280;40411;50.090;21.954;2024-01-27T11:55:18;65275.47;;;5.43;99.09
54503;BME280;40411;50.090;21.954;2024-01-27T11:57:45;65288.41;;;5.31;99.33
54503;BME280;40411;50.090;21.954;2024-01-27T12:00:11;65246.53;;;5.37;99.75
54503;BME280;40411;50.090;21.954;2024-01-27T12:02:38;65257.47;;;5.38;100.00
54503;BME280;40411;50.090;21.954;2024-01-27T12:05:05;65214.66;;;5.58;98.64
54503;BME280;40411;50.090;21.954;2024-01-27T12:07:31;65265.91;;;5.34;100.00
54503;BME280;40411;50.090;21.954;2024-01-27T12:09:58;65285.63;;;5.52;100.00
54503;BME280;40411;50.090;21.954;2024-01-27T12:12:24;65247.34;;;5.41;100.00
54503;BME280;40411;50.090;21.954;2024-01-27T12:14:51;65225.38;;;5.44;99.79
54503;BME280;40411;50.090;21.954;2024-01-27T12:17:18;65262.06;;;5.37;100.00
54503;BME280;40411;50.090;21.954;2024-01-27T12:19:51;65301.88;;;4.96;100.00
54503;BME280;40411;50.090;21.954;2024-01-27T12:22:26;65247.53;;;5.31;100.00
54503;BME280;40411;50.090;21.954;2024-01-27T12:24:54;65198.22;;;5.71;100.00
54503;BME280;40411;50.090;21.954;2024-01-27T12:27:24;65241.56;;;5.40;100.00
54503;BME280;40411;50.090;21.954;2024-01-27T12:29:50;65244.16;;;5.17;100.00
54503;BME280;40411;50.090;21.954;2024-01-27T12:32:17;65214.22;;;5.29;100.00
54503;BME280;40411;50.090;21.954;2024-01-27T12:34:43;65214.00;;;5.50;100.00
54503;BME280;40411;50.090;21.954;2024-01-27T12:37:11;65287.25;;;5.18;100.00
54503;BME280;40411;50.090;21.954;2024-01-27T12:39:42;65242.59;;;5.22;100.00
54503;BME280;40411;50.090;21.954;2024-01-27T12:42:08;65227.03;;;5.46;100.00
54503;BME280;40411;50.090;21.954;2024-01-27T12:44:34;65256.22;;;5.42;100.00
54503;BME280;40411;50.090;21.954;2024-01-27T12:47:00;65227.59;;;5.81;98.73
54503;BME280;40411;50.090;21.954;2024-01-27T12:49:27;65256.78;;;5.77;99.52
54503;BME280;40411;50.090;21.954;2024-01-27T12:51:53;65232.34;;;5.88;98.30
54503;BME280;40411;50.090;21.954;2024-01-27T12:54:19;65283.91;;;5.27;100.00
54503;BME280;40411;50.090;21.954;2024-01-27T12:56:45;65226.03;;;5.40;100.00